Fergus Falls, MN

5:42 AM CST on December 07, 2019 (GMT -0600)
Fergus Falls Municipal-Mickelson

Weather History for KFFM - November, 2019

Change the Weather History Date:

Tuesday, November 19, 2019

  Actual Average Record
Temperature  
Mean Temperature 36 °F -  
Max Temperature 39 °F 34 °F 52 °F (1963)
Min Temperature 33 °F 20 °F -2 °F (1986)
Degree Days  
Heating Degree Days 29    
Moisture  
Dew Point 33 °F    
Average Humidity 89    
Maximum Humidity 100    
Minimum Humidity 81    
Precipitation  
Precipitation 0.00 in - - ()
Sea Level Pressure  
Sea Level Pressure 29.81 in    
Wind  
Wind Speed 6 mph ()    
Max Wind Speed 15 mph    
Max Gust Speed 20 mph    
Visibility 10.0 miles    
Events      
Averages and records for this station are not official NWS values.
T = Trace of Precipitation, MM = Missing Value Source: Averaged Metar Reports

Daily Weather History Graph

Daily Weather History Graph

Search for Another Location

Airport or City:

Astronomy

Nov. 19, 2019 Rise Set
Actual Time 7:31 AM CST 4:48 PM CST
Civil Twilight 6:58 AM CST 5:21 PM CST
Nautical Twilight 6:21 AM CST 5:58 PM CST
Astronomical Twilight 5:45 AM CST 6:33 PM CST
Moon 11:49 PM CST (11/19) 1:40 PM CST (11/19)
Length of Visible Light 10h 23m
Length of Day
9h 17m
Waning Gibbous, 51% of the Moon is Illuminated
Nov 19
Waning Gibbous
Nov 19
Last Quarter
Nov 26
New
Dec 4
First Quarter
Dec 11
Full

Hourly Weather History & Observations

Time (CST) Temp. Windchill Dew Point Humidity Pressure Visibility Wind Dir Wind Speed Gust Speed Precip Events Conditions
12:15 AM 33.8 °F 27.0 °F 33.8 °F 100% 29.65 in 10.0 mi WNW 8.1 mph - N/A   Scattered Clouds
12:16 AM 33.8 °F 27.0 °F 33.8 °F 100% 29.65 in 10.0 mi WNW 8.1 mph - N/A   Scattered Clouds
12:38 AM 33.8 °F 27.7 °F 33.8 °F 100% 29.66 in 10.0 mi WNW 6.9 mph - N/A   Scattered Clouds
12:56 AM 33.8 °F 27.7 °F 33.8 °F 100% 29.65 in 10.0 mi NW 6.9 mph - N/A   Mostly Cloudy
1:16 AM 33.8 °F 28.6 °F 32.0 °F 93% 29.65 in 10.0 mi WNW 5.8 mph - N/A   Mostly Cloudy
1:35 AM 33.8 °F 29.6 °F 32.0 °F 93% 29.66 in 10.0 mi West 4.6 mph - N/A   Mostly Cloudy
1:36 AM 33.8 °F 29.6 °F 32.0 °F 93% 29.66 in 10.0 mi West 4.6 mph - N/A   Mostly Cloudy
1:55 AM 33.8 °F 28.6 °F 33.8 °F 100% 29.66 in 10.0 mi WNW 5.8 mph - N/A   Overcast
2:17 AM 33.8 °F 29.6 °F 33.8 °F 100% 29.67 in 10.0 mi WNW 4.6 mph - N/A   Overcast
2:36 AM 33.8 °F 28.6 °F 32.0 °F 93% 29.68 in 10.0 mi West 5.8 mph - N/A   Overcast
2:55 AM 33.8 °F 27.7 °F 32.0 °F 93% 29.68 in 10.0 mi West 6.9 mph - N/A   Overcast
2:56 AM 33.8 °F 27.7 °F 32.0 °F 93% 29.68 in 10.0 mi West 6.9 mph - N/A   Overcast
3:15 AM 33.8 °F 27.0 °F 33.8 °F 100% 29.68 in 10.0 mi West 8.1 mph - N/A   Overcast
3:37 AM 33.8 °F 27.0 °F 32.0 °F 93% 29.69 in 10.0 mi WNW 8.1 mph - N/A   Overcast
3:55 AM 35.6 °F 27.5 °F 33.8 °F 93% 29.69 in 10.0 mi WNW 11.5 mph - N/A   Overcast
4:15 AM 33.8 °F 28.6 °F 32.0 °F 93% 29.70 in 10.0 mi WNW 5.8 mph - N/A   Overcast
4:16 AM 33.8 °F 28.6 °F 32.0 °F 93% 29.70 in 10.0 mi WNW 5.8 mph - N/A   Overcast
4:35 AM 33.8 °F 29.6 °F 32.0 °F 93% 29.70 in 10.0 mi NW 4.6 mph - N/A   Overcast
4:57 AM 33.8 °F 28.6 °F 32.0 °F 93% 29.70 in 10.0 mi NNW 5.8 mph - N/A   Overcast
5:15 AM 33.8 °F 28.6 °F 32.0 °F 93% 29.71 in 10.0 mi WNW 5.8 mph - N/A   Overcast
5:35 AM 33.8 °F 27.0 °F 30.2 °F 87% 29.73 in 10.0 mi West 8.1 mph - N/A   Overcast
5:55 AM 33.8 °F 25.8 °F 32.0 °F 93% 29.73 in 10.0 mi WNW 10.4 mph - N/A   Overcast
5:59 AM 33.8 °F 25.8 °F 32.0 °F 93% 29.73 in 10.0 mi WNW 10.4 mph - N/A   Overcast
6:16 AM 33.8 °F 26.4 °F 32.0 °F 93% 29.73 in 10.0 mi WNW 9.2 mph - N/A   Overcast
6:35 AM 33.8 °F 27.0 °F 32.0 °F 93% 29.74 in 10.0 mi WNW 8.1 mph - N/A   Overcast
6:36 AM 33.8 °F 27.0 °F 32.0 °F 93% 29.74 in 10.0 mi WNW 8.1 mph - N/A   Overcast
6:55 AM 35.6 °F 29.2 °F 32.0 °F 87% 29.75 in 10.0 mi NW 8.1 mph - N/A   Overcast
6:56 AM 35.6 °F 29.2 °F 32.0 °F 87% 29.75 in 10.0 mi NW 8.1 mph - N/A   Overcast
7:15 AM 35.6 °F 29.9 °F 32.0 °F 87% 29.75 in 10.0 mi WNW 6.9 mph - N/A   Overcast
7:20 AM 33.8 °F 28.6 °F 32.0 °F 93% 29.76 in 10.0 mi WNW 5.8 mph - N/A   Overcast
7:38 AM 33.8 °F 28.6 °F 32.0 °F 93% 29.76 in 10.0 mi NW 5.8 mph - N/A   Overcast
7:55 AM 35.6 °F 29.2 °F 33.8 °F 93% 29.77 in 10.0 mi NW 8.1 mph - N/A   Overcast
8:15 AM 35.6 °F 28.6 °F 33.8 °F 93% 29.77 in 10.0 mi NW 9.2 mph - N/A   Overcast
8:16 AM 35.6 °F 28.6 °F 33.8 °F 93% 29.77 in 10.0 mi NW 9.2 mph - N/A   Overcast
8:35 AM 35.6 °F 29.2 °F 33.8 °F 93% 29.77 in 10.0 mi NW 8.1 mph - N/A   Overcast
8:39 AM 35.6 °F 29.2 °F 33.8 °F 93% 29.78 in 10.0 mi NW 8.1 mph - N/A   Overcast
8:57 AM 35.6 °F 28.0 °F 33.8 °F 93% 29.78 in 10.0 mi NW 10.4 mph - N/A   Overcast
9:15 AM 35.6 °F 27.5 °F 33.8 °F 93% 29.78 in 10.0 mi NW 11.5 mph - N/A   Overcast
9:35 AM 37.4 °F 29.8 °F 35.6 °F 93% 29.80 in 10.0 mi NW 11.5 mph - N/A   Overcast
9:36 AM 37.4 °F 29.8 °F 35.6 °F 93% 29.80 in 10.0 mi NW 11.5 mph - N/A   Overcast
9:55 AM 37.4 °F 29.3 °F 35.6 °F 93% 29.80 in 10.0 mi NW 12.7 mph - N/A   Overcast
9:56 AM 37.4 °F 29.3 °F 35.6 °F 93% 29.80 in 10.0 mi NW 12.7 mph - N/A   Overcast
10:36 AM 37.4 °F 29.8 °F 35.6 °F 93% 29.81 in 10.0 mi NW 11.5 mph - N/A   Overcast
11:15 AM 39.2 °F 31.2 °F 35.6 °F 87% 29.82 in 10.0 mi NW 13.8 mph - N/A   Overcast
11:16 AM 39.2 °F 31.2 °F 35.6 °F 87% 29.82 in 10.0 mi NW 13.8 mph - N/A   Overcast
11:35 AM 39.2 °F 32.0 °F 35.6 °F 87% 29.83 in 10.0 mi NW 11.5 mph 19.6 mph N/A   Overcast
11:57 AM 39.2 °F 31.6 °F 35.6 °F 87% 29.83 in 10.0 mi NW 12.7 mph - N/A   Overcast
12:16 PM 39.2 °F 30.8 °F 35.6 °F 87% 29.84 in 10.0 mi NW 15.0 mph - N/A   Overcast
12:35 PM 39.2 °F 32.5 °F 33.8 °F 81% 29.83 in 10.0 mi WNW 10.4 mph - N/A   Overcast
12:55 PM 39.2 °F 33.6 °F 33.8 °F 81% 29.84 in 10.0 mi NW 8.1 mph - N/A   Overcast
12:59 PM 39.2 °F 32.0 °F 33.8 °F 81% 29.84 in 10.0 mi NW 11.5 mph - N/A   Overcast
1:16 PM 39.2 °F 33.0 °F 33.8 °F 81% 29.85 in 10.0 mi NW 9.2 mph - N/A   Overcast
1:35 PM 39.2 °F 33.0 °F 33.8 °F 81% 29.85 in 10.0 mi NW 9.2 mph 18.4 mph N/A   Overcast
1:36 PM 39.2 °F 33.0 °F 33.8 °F 81% 29.85 in 10.0 mi NW 9.2 mph 18.4 mph N/A   Overcast
1:55 PM 39.2 °F 33.6 °F 33.8 °F 81% 29.85 in 10.0 mi NW 8.1 mph - N/A   Overcast
1:56 PM 39.2 °F 34.2 °F 33.8 °F 81% 29.85 in 10.0 mi NW 6.9 mph - N/A   Overcast
2:15 PM 39.2 °F 35.9 °F 33.8 °F 81% 29.85 in 10.0 mi WNW 4.6 mph - N/A   Overcast
2:45 PM 39.2 °F 37.0 °F 33.8 °F 81% 29.84 in 10.0 mi WNW 3.5 mph - N/A   Overcast
3:22 PM 39.2 °F 37.0 °F 33.8 °F 81% 29.85 in 10.0 mi WNW 3.5 mph - N/A   Overcast
3:35 PM 39.2 °F 35.9 °F 33.8 °F 81% 29.85 in 10.0 mi West 4.6 mph - N/A   Overcast
3:36 PM 39.2 °F 35.9 °F 33.8 °F 81% 29.85 in 10.0 mi West 4.6 mph - N/A   Overcast
3:55 PM 39.2 °F 37.0 °F 33.8 °F 81% 29.86 in 10.0 mi West 3.5 mph - N/A   Overcast
4:15 PM 39.2 °F - 33.8 °F 81% 29.86 in 10.0 mi Calm Calm - N/A   Overcast
4:16 PM 39.2 °F - 33.8 °F 81% 29.86 in 10.0 mi Calm Calm - N/A   Overcast
4:35 PM 39.2 °F - 33.8 °F 81% 29.86 in 10.0 mi Calm Calm - N/A   Overcast
4:55 PM 39.2 °F - 33.8 °F 81% 29.87 in 10.0 mi Calm Calm - N/A   Overcast
5:15 PM 37.4 °F 33.8 °F 33.8 °F 87% 29.87 in 10.0 mi West 4.6 mph - N/A   Overcast
5:16 PM 37.4 °F 33.8 °F 33.8 °F 87% 29.87 in 10.0 mi West 4.6 mph - N/A   Overcast
5:55 PM 35.6 °F 30.7 °F 33.8 °F 93% 29.88 in 10.0 mi WSW 5.8 mph - N/A   Overcast
6:15 PM 37.4 °F 33.8 °F 33.8 °F 87% 29.89 in 10.0 mi West 4.6 mph - N/A   Overcast
6:35 PM 37.4 °F 34.9 °F 33.8 °F 87% 29.90 in 10.0 mi WSW 3.5 mph - N/A   Overcast
6:55 PM 35.6 °F 32.8 °F 33.8 °F 93% 29.91 in 10.0 mi West 3.5 mph - N/A   Overcast
7:15 PM 35.6 °F 30.7 °F 32.0 °F 87% 29.92 in 10.0 mi West 5.8 mph - N/A   Overcast
7:16 PM 35.6 °F 30.7 °F 32.0 °F 87% 29.92 in 10.0 mi WSW 5.8 mph - N/A   Overcast
7:35 PM 35.6 °F - 33.8 °F 93% 29.92 in 10.0 mi Calm Calm - N/A   Overcast
7:55 PM 35.6 °F - 32.0 °F 87% 29.92 in 10.0 mi Calm Calm - N/A   Overcast
8:35 PM 35.6 °F - 32.0 °F 87% 29.92 in 10.0 mi Calm Calm - N/A   Overcast
8:55 PM 35.6 °F - 32.0 °F 87% 29.93 in 10.0 mi Calm Calm - N/A   Overcast
9:15 PM 35.6 °F - 32.0 °F 87% 29.93 in 10.0 mi Calm Calm - N/A   Overcast
9:16 PM 35.6 °F - 32.0 °F 87% 29.93 in 10.0 mi Calm Calm - N/A   Overcast
9:35 PM 35.6 °F - 32.0 °F 87% 29.94 in 10.0 mi Calm Calm - N/A   Overcast
9:36 PM 35.6 °F - 32.0 °F 87% 29.94 in 10.0 mi Calm Calm - N/A   Overcast
9:55 PM 35.6 °F - 32.0 °F 87% 29.95 in 10.0 mi Calm Calm - N/A   Overcast
9:56 PM 35.6 °F - 32.0 °F 87% 29.95 in 10.0 mi Calm Calm - N/A   Overcast
10:15 PM 35.6 °F - 32.0 °F 87% 29.95 in 10.0 mi Calm Calm - N/A   Overcast
10:35 PM 35.6 °F - 32.0 °F 87% 29.95 in 10.0 mi Calm Calm - N/A   Overcast
10:55 PM 35.6 °F - 30.2 °F 81% 29.96 in 10.0 mi Calm Calm - N/A   Overcast
10:56 PM 35.6 °F - 30.2 °F 81% 29.96 in 10.0 mi Calm Calm - N/A   Overcast
11:15 PM 35.6 °F - 30.2 °F 81% 29.97 in 10.0 mi Calm Calm - N/A   Overcast
11:35 PM 35.6 °F - 30.2 °F 81% 29.96 in 10.0 mi Calm Calm - N/A   Overcast
11:55 PM 33.8 °F 30.8 °F 30.2 °F 87% 29.96 in 10.0 mi SSE 3.5 mph - N/A   Overcast